sensor_id;sensor_type;location;lat;lon;timestamp;pressure;altitude;pressure_sealevel;temperature;humidity
73085;BME280;62974;49.460;10.892;2022-11-12T00:00:56;99497.16;;;5.61;88.13
73085;BME280;62974;49.460;10.892;2022-11-12T00:03:26;99496.91;;;5.64;88.69
73085;BME280;62974;49.460;10.892;2022-11-12T00:05:53;99492.78;;;5.60;88.45
73085;BME280;62974;49.460;10.892;2022-11-12T00:08:20;99490.63;;;5.54;88.29
73085;BME280;62974;49.460;10.892;2022-11-12T00:10:49;99497.38;;;5.58;88.67
73085;BME280;62974;49.460;10.892;2022-11-12T00:13:19;99487.38;;;5.50;87.64
73085;BME280;62974;49.460;10.892;2022-11-12T00:15:46;99490.88;;;5.51;88.01
73085;BME280;62974;49.460;10.892;2022-11-12T00:18:14;99488.97;;;5.42;88.88
73085;BME280;62974;49.460;10.892;2022-11-12T00:20:43;99494.78;;;5.47;87.49
73085;BME280;62974;49.460;10.892;2022-11-12T00:23:10;99490.66;;;5.43;87.78
73085;BME280;62974;49.460;10.892;2022-11-12T00:25:38;99492.25;;;5.45;89.10
73085;BME280;62974;49.460;10.892;2022-11-12T00:28:08;99488.38;;;5.49;88.85
73085;BME280;62974;49.460;10.892;2022-11-12T00:30:36;99487.03;;;5.44;88.21
73085;BME280;62974;49.460;10.892;2022-11-12T00:33:04;99486.09;;;5.45;88.30
73085;BME280;62974;49.460;10.892;2022-11-12T00:35:33;99485.34;;;5.43;87.71
73085;BME280;62974;49.460;10.892;2022-11-12T00:38:02;99488.47;;;5.48;87.61
73085;BME280;62974;49.460;10.892;2022-11-12T00:40:29;99491.25;;;5.46;88.81
73085;BME280;62974;49.460;10.892;2022-11-12T00:42:57;99484.38;;;5.44;88.39
73085;BME280;62974;49.460;10.892;2022-11-12T00:45:25;99480.88;;;5.43;88.14
73085;BME280;62974;49.460;10.892;2022-11-12T00:47:53;99489.81;;;5.42;88.87
73085;BME280;62974;49.460;10.892;2022-11-12T00:50:21;99487.53;;;5.38;89.08
73085;BME280;62974;49.460;10.892;2022-11-12T00:52:50;99484.16;;;5.36;89.20
73085;BME280;62974;49.460;10.892;2022-11-12T00:55:19;99482.34;;;5.36;88.66
73085;BME280;62974;49.460;10.892;2022-11-12T00:57:47;99472.53;;;5.37;87.88
73085;BME280;62974;49.460;10.892;2022-11-12T01:00:16;99480.31;;;5.29;88.91
73085;BME280;62974;49.460;10.892;2022-11-12T01:02:44;99477.13;;;5.35;88.74
73085;BME280;62974;49.460;10.892;2022-11-12T01:05:17;99465.72;;;5.12;90.11
73085;BME280;62974;49.460;10.892;2022-11-12T01:07:44;99474.84;;;5.30;90.03
73085;BME280;62974;49.460;10.892;2022-11-12T01:10:19;99470.25;;;5.32;88.24
73085;BME280;62974;49.460;10.892;2022-11-12T01:12:47;99465.91;;;5.31;88.19
73085;BME280;62974;49.460;10.892;2022-11-12T01:15:14;99469.53;;;5.30;88.83
73085;BME280;62974;49.460;10.892;2022-11-12T01:17:42;99465.63;;;5.34;89.00
73085;BME280;62974;49.460;10.892;2022-11-12T01:20:09;99457.53;;;5.36;88.49
73085;BME280;62974;49.460;10.892;2022-11-12T01:22:37;99457.78;;;5.33;89.23
73085;BME280;62974;49.460;10.892;2022-11-12T01:25:05;99452.09;;;5.26;88.87
73085;BME280;62974;49.460;10.892;2022-11-12T01:27:34;99458.75;;;5.32;89.41
73085;BME280;62974;49.460;10.892;2022-11-12T01:30:02;99458.63;;;5.33;89.38
73085;BME280;62974;49.460;10.892;2022-11-12T01:32:33;99448.94;;;5.32;89.51
73085;BME280;62974;49.460;10.892;2022-11-12T01:35:00;99446.88;;;5.36;89.55
73085;BME280;62974;49.460;10.892;2022-11-12T01:37:28;99448.34;;;5.29;89.29
73085;BME280;62974;49.460;10.892;2022-11-12T01:39:55;99448.94;;;5.32;89.82
73085;BME280;62974;49.460;10.892;2022-11-12T01:42:25;99444.59;;;5.31;90.12
73085;BME280;62974;49.460;10.892;2022-11-12T01:44:55;99446.88;;;5.36;89.86
73085;BME280;62974;49.460;10.892;2022-11-12T01:47:23;99437.06;;;5.36;89.74
73085;BME280;62974;49.460;10.892;2022-11-12T01:49:54;99448.81;;;5.34;89.63
73085;BME280;62974;49.460;10.892;2022-11-12T01:52:26;99439.38;;;5.30;90.49
73085;BME280;62974;49.460;10.892;2022-11-12T01:55:02;99443.88;;;5.29;89.88
73085;BME280;62974;49.460;10.892;2022-11-12T01:57:35;99437.44;;;5.32;89.87
73085;BME280;62974;49.460;10.892;2022-11-12T02:00:07;99433.09;;;5.31;90.47
73085;BME280;62974;49.460;10.892;2022-11-12T02:02:36;99446.88;;;5.36;89.90
73085;BME280;62974;49.460;10.892;2022-11-12T02:05:07;99440.13;;;5.32;89.89
73085;BME280;62974;49.460;10.892;2022-11-12T02:07:37;99447.38;;;5.30;89.91
73085;BME280;62974;49.460;10.892;2022-11-12T02:10:07;99446.41;;;5.31;90.14
73085;BME280;62974;49.460;10.892;2022-11-12T02:12:35;99446.41;;;5.31;90.46
73085;BME280;62974;49.460;10.892;2022-11-12T02:15:22;99436.59;;;5.31;90.13
73085;BME280;62974;49.460;10.892;2022-11-12T02:17:49;99440.50;;;5.27;90.21
73085;BME280;62974;49.460;10.892;2022-11-12T02:20:17;99443.03;;;5.29;90.40
73085;BME280;62974;49.460;10.892;2022-11-12T02:22:46;99434.06;;;5.30;90.79
73085;BME280;62974;49.460;10.892;2022-11-12T02:25:15;99437.34;;;5.33;90.65
73085;BME280;62974;49.460;10.892;2022-11-12T02:27:43;99431.16;;;5.33;90.51
73085;BME280;62974;49.460;10.892;2022-11-12T02:30:11;99434.41;;;5.36;90.28
73085;BME280;62974;49.460;10.892;2022-11-12T02:32:39;99435.00;;;5.40;90.67
73085;BME280;62974;49.460;10.892;2022-11-12T02:35:07;99432.34;;;5.40;90.38
73085;BME280;62974;49.460;10.892;2022-11-12T02:37:34;99440.97;;;5.32;90.55
73085;BME280;62974;49.460;10.892;2022-11-12T02:40:04;99443.25;;;5.26;91.17
73085;BME280;62974;49.460;10.892;2022-11-12T02:42:32;99444.84;;;5.28;90.39
73085;BME280;62974;49.460;10.892;2022-11-12T02:44:59;99449.59;;;5.25;90.35
73085;BME280;62974;49.460;10.892;2022-11-12T02:47:27;99443.41;;;5.24;90.97
73085;BME280;62974;49.460;10.892;2022-11-12T02:49:54;99438.19;;;5.22;90.95
73085;BME280;62974;49.460;10.892;2022-11-12T02:52:22;99447.38;;;5.30;90.62
73085;BME280;62974;49.460;10.892;2022-11-12T02:54:49;99444.97;;;5.27;90.61
73085;BME280;62974;49.460;10.892;2022-11-12T02:57:18;99444.97;;;5.27;91.30
73085;BME280;62974;49.460;10.892;2022-11-12T02:59:46;99444.13;;;5.26;91.11
73085;BME280;62974;49.460;10.892;2022-11-12T03:02:13;99441.44;;;5.26;90.84
73085;BME280;62974;49.460;10.892;2022-11-12T03:04:41;99441.34;;;5.28;91.12
73085;BME280;62974;49.460;10.892;2022-11-12T03:07:14;99450.75;;;5.32;91.35
73085;BME280;62974;49.460;10.892;2022-11-12T03:09:42;99451.63;;;5.32;90.85
73085;BME280;62974;49.460;10.892;2022-11-12T03:12:10;99450.75;;;5.32;90.72
73085;BME280;62974;49.460;10.892;2022-11-12T03:14:38;99446.56;;;5.29;91.43
73085;BME280;62974;49.460;10.892;2022-11-12T03:17:06;99454.66;;;5.28;90.73
73085;BME280;62974;49.460;10.892;2022-11-12T03:19:33;99453.22;;;5.24;91.09
73085;BME280;62974;49.460;10.892;2022-11-12T03:22:01;99453.91;;;5.26;90.91
73085;BME280;62974;49.460;10.892;2022-11-12T03:24:28;99448.72;;;5.24;91.14
73085;BME280;62974;49.460;10.892;2022-11-12T03:26:55;99454.56;;;5.18;91.10
73085;BME280;62974;49.460;10.892;2022-11-12T03:29:24;99450.28;;;5.27;90.83
73085;BME280;62974;49.460;10.892;2022-11-12T03:31:53;99443.66;;;5.21;90.81
73085;BME280;62974;49.460;10.892;2022-11-12T03:34:21;99440.59;;;5.26;90.90
73085;BME280;62974;49.460;10.892;2022-11-12T03:36:48;99445.13;;;5.25;90.50
73085;BME280;62974;49.460;10.892;2022-11-12T03:39:16;99450.44;;;5.25;91.34
73085;BME280;62974;49.460;10.892;2022-11-12T03:41:43;99443.75;;;5.31;91.14
73085;BME280;62974;49.460;10.892;2022-11-12T03:44:10;99443.66;;;5.21;91.34
73085;BME280;62974;49.460;10.892;2022-11-12T03:46:38;99445.22;;;5.24;91.58
73085;BME280;62974;49.460;10.892;2022-11-12T03:49:11;99439.69;;;5.15;91.05
73085;BME280;62974;49.460;10.892;2022-11-12T03:51:38;99448.84;;;5.22;91.04
73085;BME280;62974;49.460;10.892;2022-11-12T03:54:06;99444.75;;;5.18;91.09
73085;BME280;62974;49.460;10.892;2022-11-12T03:56:33;99441.00;;;5.21;90.98
73085;BME280;62974;49.460;10.892;2022-11-12T03:59:01;99445.75;;;5.17;91.49
73085;BME280;62974;49.460;10.892;2022-11-12T04:01:28;99441.13;;;5.19;90.94
73085;BME280;62974;49.460;10.892;2022-11-12T04:03:56;99443.91;;;5.18;90.23
73085;BME280;62974;49.460;10.892;2022-11-12T04:06:25;99431.09;;;5.12;90.75
73085;BME280;62974;49.460;10.892;2022-11-12T04:09:10;99437.28;;;5.12;90.54
73085;BME280;62974;49.460;10.892;2022-11-12T04:11:38;99436.31;;;5.13;90.00
73085;BME280;62974;49.460;10.892;2022-11-12T04:14:05;99440.91;;;5.11;89.44
73085;BME280;62974;49.460;10.892;2022-11-12T04:16:32;99431.38;;;5.09;89.98
73085;BME280;62974;49.460;10.892;2022-11-12T04:19:17;99445.63;;;5.08;90.63
73085;BME280;62974;49.460;10.892;2022-11-12T04:22:06;99435.94;;;5.07;89.94
73085;BME280;62974;49.460;10.892;2022-11-12T04:24:35;99437.91;;;5.05;89.96
73085;BME280;62974;49.460;10.892;2022-11-12T04:27:23;99446.00;;;5.03;89.83
73085;BME280;62974;49.460;10.892;2022-11-12T04:29:52;99446.75;;;5.05;89.29
73085;BME280;62974;49.460;10.892;2022-11-12T04:32:38;99448.19;;;4.98;89.29
73085;BME280;62974;49.460;10.892;2022-11-12T04:35:07;99444.69;;;4.98;88.25
73085;BME280;62974;49.460;10.892;2022-11-12T04:37:36;99446.53;;;4.97;89.15
73085;BME280;62974;49.460;10.892;2022-11-12T04:40:14;99451.97;;;4.96;88.50
73085;BME280;62974;49.460;10.892;2022-11-12T04:43:00;99447.59;;;4.95;88.44
73085;BME280;62974;49.460;10.892;2022-11-12T04:45:47;99446.91;;;4.93;88.20
73085;BME280;62974;49.460;10.892;2022-11-12T04:48:16;99451.22;;;4.94;88.93
73085;BME280;62974;49.460;10.892;2022-11-12T04:50:46;99449.31;;;4.85;87.18
73085;BME280;62974;49.460;10.892;2022-11-12T04:53:15;99452.09;;;4.83;86.90
73085;BME280;62974;49.460;10.892;2022-11-12T04:55:43;99454.91;;;4.82;86.61
73085;BME280;62974;49.460;10.892;2022-11-12T04:58:11;99457.31;;;4.85;88.33
73085;BME280;62974;49.460;10.892;2022-11-12T05:00:38;99461.63;;;4.86;87.93
73085;BME280;62974;49.460;10.892;2022-11-12T05:03:06;99459.59;;;4.78;87.45
73085;BME280;62974;49.460;10.892;2022-11-12T05:05:33;99458.03;;;4.76;87.31
73085;BME280;62974;49.460;10.892;2022-11-12T05:08:01;99465.91;;;4.77;87.61
73085;BME280;62974;49.460;10.892;2022-11-12T05:10:30;99461.44;;;4.78;86.86
73085;BME280;62974;49.460;10.892;2022-11-12T05:12:58;99456.47;;;4.73;86.91
73085;BME280;62974;49.460;10.892;2022-11-12T05:15:25;99462.03;;;4.70;87.73
73085;BME280;62974;49.460;10.892;2022-11-12T05:17:53;99466.53;;;4.69;87.16
73085;BME280;62974;49.460;10.892;2022-11-12T05:20:20;99463.88;;;4.69;86.88
73085;BME280;62974;49.460;10.892;2022-11-12T05:22:48;99462.41;;;4.65;86.27
73085;BME280;62974;49.460;10.892;2022-11-12T05:25:33;99460.72;;;4.64;86.40
73085;BME280;62974;49.460;10.892;2022-11-12T05:28:00;99461.56;;;4.65;87.08
73085;BME280;62974;49.460;10.892;2022-11-12T05:30:28;99454.31;;;4.67;86.19
73085;BME280;62974;49.460;10.892;2022-11-12T05:32:55;99454.44;;;4.65;87.33
73085;BME280;62974;49.460;10.892;2022-11-12T05:35:23;99447.91;;;4.58;86.65
73085;BME280;62974;49.460;10.892;2022-11-12T05:37:50;99456.97;;;4.56;85.53
73085;BME280;62974;49.460;10.892;2022-11-12T05:40:18;99451.66;;;4.56;86.07
73085;BME280;62974;49.460;10.892;2022-11-12T05:42:47;99457.94;;;4.55;85.82
73085;BME280;62974;49.460;10.892;2022-11-12T05:45:14;99452.50;;;4.56;86.61
73085;BME280;62974;49.460;10.892;2022-11-12T05:47:42;99446.00;;;4.49;86.30
73085;BME280;62974;49.460;10.892;2022-11-12T05:50:09;99445.13;;;4.49;86.26
73085;BME280;62974;49.460;10.892;2022-11-12T05:52:37;99457.94;;;4.55;87.41
73085;BME280;62974;49.460;10.892;2022-11-12T05:55:05;99458.78;;;4.55;86.58
73085;BME280;62974;49.460;10.892;2022-11-12T05:57:32;99460.84;;;4.52;86.54
73085;BME280;62974;49.460;10.892;2022-11-12T06:00:02;99460.00;;;4.51;86.17
73085;BME280;62974;49.460;10.892;2022-11-12T06:02:29;99461.94;;;4.49;86.81
73085;BME280;62974;49.460;10.892;2022-11-12T06:04:57;99463.16;;;4.56;87.90
73085;BME280;62974;49.460;10.892;2022-11-12T06:07:24;99470.97;;;4.58;87.01
73085;BME280;62974;49.460;10.892;2022-11-12T06:09:52;99469.78;;;4.51;86.89
73085;BME280;62974;49.460;10.892;2022-11-12T06:12:19;99473.66;;;4.47;87.12
73085;BME280;62974;49.460;10.892;2022-11-12T06:14:47;99476.91;;;4.50;88.00
73085;BME280;62974;49.460;10.892;2022-11-12T06:17:16;99474.16;;;4.52;86.99
73085;BME280;62974;49.460;10.892;2022-11-12T06:19:43;99479.22;;;4.44;87.79
73085;BME280;62974;49.460;10.892;2022-11-12T06:22:11;99471.84;;;4.47;87.91
73085;BME280;62974;49.460;10.892;2022-11-12T06:24:38;99480.19;;;4.54;87.97
73085;BME280;62974;49.460;10.892;2022-11-12T06:27:06;99476.31;;;4.47;88.06
73085;BME280;62974;49.460;10.892;2022-11-12T06:29:33;99487.44;;;4.52;88.49
73085;BME280;62974;49.460;10.892;2022-11-12T06:32:01;99488.41;;;4.51;88.76
73085;BME280;62974;49.460;10.892;2022-11-12T06:34:30;99482.38;;;4.38;87.17
73085;BME280;62974;49.460;10.892;2022-11-12T06:36:57;99482.47;;;4.36;88.15
73085;BME280;62974;49.460;10.892;2022-11-12T06:39:24;99488.28;;;4.41;88.20
73085;BME280;62974;49.460;10.892;2022-11-12T06:41:52;99486.72;;;4.39;88.10
73085;BME280;62974;49.460;10.892;2022-11-12T06:44:20;99492.88;;;4.39;88.26
73085;BME280;62974;49.460;10.892;2022-11-12T06:46:48;99493.13;;;4.36;88.01
73085;BME280;62974;49.460;10.892;2022-11-12T06:49:15;99486.09;;;4.35;87.39
73085;BME280;62974;49.460;10.892;2022-11-12T06:51:44;99486.84;;;4.37;87.08
73085;BME280;62974;49.460;10.892;2022-11-12T06:54:12;99491.06;;;4.40;88.20
73085;BME280;62974;49.460;10.892;2022-11-12T06:56:39;99494.31;;;4.43;87.78
73085;BME280;62974;49.460;10.892;2022-11-12T06:59:07;99490.72;;;4.44;87.57
73085;BME280;62974;49.460;10.892;2022-11-12T07:01:34;99491.66;;;4.43;87.94
73085;BME280;62974;49.460;10.892;2022-11-12T07:04:02;99492.28;;;4.36;87.83
73085;BME280;62974;49.460;10.892;2022-11-12T07:06:29;99498.94;;;4.41;88.50
73085;BME280;62974;49.460;10.892;2022-11-12T07:08:58;99502.44;;;4.42;88.02
73085;BME280;62974;49.460;10.892;2022-11-12T07:11:25;99503.41;;;4.41;88.40
73085;BME280;62974;49.460;10.892;2022-11-12T07:13:53;99500.13;;;4.48;88.36
73085;BME280;62974;49.460;10.892;2022-11-12T07:16:20;99503.06;;;4.45;88.25
73085;BME280;62974;49.460;10.892;2022-11-12T07:18:48;99504.72;;;4.46;88.85
73085;BME280;62974;49.460;10.892;2022-11-12T07:21:18;99509.09;;;4.47;88.77
73085;BME280;62974;49.460;10.892;2022-11-12T07:23:46;99503.28;;;4.53;88.69
73085;BME280;62974;49.460;10.892;2022-11-12T07:26:17;99506.41;;;4.47;89.14
73085;BME280;62974;49.460;10.892;2022-11-12T07:28:45;99493.38;;;4.44;88.99
73085;BME280;62974;49.460;10.892;2022-11-12T07:31:14;99503.41;;;4.52;89.24
73085;BME280;62974;49.460;10.892;2022-11-12T07:33:43;99504.38;;;4.51;89.11
73085;BME280;62974;49.460;10.892;2022-11-12T07:36:12;99504.13;;;4.54;89.38
73085;BME280;62974;49.460;10.892;2022-11-12T07:38:40;99498.09;;;4.52;89.63
73085;BME280;62974;49.460;10.892;2022-11-12T07:41:10;99500.50;;;4.55;89.60
73085;BME280;62974;49.460;10.892;2022-11-12T07:43:41;99506.41;;;4.58;89.90
73085;BME280;62974;49.460;10.892;2022-11-12T07:46:11;99494.94;;;4.58;89.46
73085;BME280;62974;49.460;10.892;2022-11-12T07:48:40;99501.94;;;4.59;89.67
73085;BME280;62974;49.460;10.892;2022-11-12T07:51:11;99494.94;;;4.58;90.49
73085;BME280;62974;49.460;10.892;2022-11-12T07:53:40;99502.81;;;4.59;90.56
73085;BME280;62974;49.460;10.892;2022-11-12T07:56:09;99507.03;;;4.62;90.92
73085;BME280;62974;49.460;10.892;2022-11-12T07:58:37;99502.81;;;4.59;91.12
73085;BME280;62974;49.460;10.892;2022-11-12T08:01:11;99505.00;;;4.65;90.74
73085;BME280;62974;49.460;10.892;2022-11-12T08:03:45;99510.91;;;4.69;90.03
73085;BME280;62974;49.460;10.892;2022-11-12T08:06:13;99504.25;;;4.74;90.48
73085;BME280;62974;49.460;10.892;2022-11-12T08:08:40;99498.06;;;4.74;90.96
73085;BME280;62974;49.460;10.892;2022-11-12T08:11:08;99493.59;;;4.74;90.35
73085;BME280;62974;49.460;10.892;2022-11-12T08:13:35;99498.81;;;4.65;92.09
73085;BME280;62974;49.460;10.892;2022-11-12T08:16:03;99499.28;;;4.59;92.85
73085;BME280;62974;49.460;10.892;2022-11-12T08:18:32;99496.97;;;4.54;93.79
73085;BME280;62974;49.460;10.892;2022-11-12T08:21:00;99492.53;;;4.77;92.08
73085;BME280;62974;49.460;10.892;2022-11-12T08:23:27;99494.69;;;4.83;92.90
73085;BME280;62974;49.460;10.892;2022-11-12T08:25:57;99490.91;;;4.86;91.93
73085;BME280;62974;49.460;10.892;2022-11-12T08:28:25;99487.19;;;4.88;92.84
73085;BME280;62974;49.460;10.892;2022-11-12T08:30:55;99494.66;;;4.94;90.92
73085;BME280;62974;49.460;10.892;2022-11-12T08:33:23;99497.22;;;4.96;91.61
73085;BME280;62974;49.460;10.892;2022-11-12T08:35:52;99498.06;;;4.96;92.40
73085;BME280;62974;49.460;10.892;2022-11-12T08:38:19;99502.53;;;4.96;92.41
73085;BME280;62974;49.460;10.892;2022-11-12T08:40:47;99501.97;;;4.81;97.18
73085;BME280;62974;49.460;10.892;2022-11-12T08:43:14;99507.25;;;4.92;94.79
73085;BME280;62974;49.460;10.892;2022-11-12T08:45:42;99500.59;;;4.98;96.08
73085;BME280;62974;49.460;10.892;2022-11-12T08:48:13;99507.25;;;5.03;95.39
73085;BME280;62974;49.460;10.892;2022-11-12T08:50:41;99506.06;;;4.85;99.16
73085;BME280;62974;49.460;10.892;2022-11-12T08:53:11;99506.53;;;4.90;100.00
73085;BME280;62974;49.460;10.892;2022-11-12T08:55:39;99500.00;;;4.72;100.00
73085;BME280;62974;49.460;10.892;2022-11-12T08:58:07;99492.88;;;4.84;100.00
73085;BME280;62974;49.460;10.892;2022-11-12T09:00:36;99494.03;;;5.02;100.00
73085;BME280;62974;49.460;10.892;2022-11-12T09:03:06;99487.38;;;5.07;100.00
73085;BME280;62974;49.460;10.892;2022-11-12T09:05:34;99486.75;;;5.15;99.26
73085;BME280;62974;49.460;10.892;2022-11-12T09:08:04;99486.75;;;5.15;100.00
73085;BME280;62974;49.460;10.892;2022-11-12T09:10:33;99482.66;;;5.11;100.00
73085;BME280;62974;49.460;10.892;2022-11-12T09:13:02;99491.00;;;5.17;100.00
73085;BME280;62974;49.460;10.892;2022-11-12T09:15:30;99488.47;;;5.16;100.00
73085;BME280;62974;49.460;10.892;2022-11-12T09:18:06;99487.47;;;5.28;100.00
73085;BME280;62974;49.460;10.892;2022-11-12T09:20:34;99492.38;;;5.44;100.00
73085;BME280;62974;49.460;10.892;2022-11-12T09:23:04;99491.91;;;5.39;100.00
73085;BME280;62974;49.460;10.892;2022-11-12T09:25:33;99493.22;;;5.44;100.00
73085;BME280;62974;49.460;10.892;2022-11-12T09:28:06;99494.66;;;5.48;100.00
73085;BME280;62974;49.460;10.892;2022-11-12T09:30:34;99492.00;;;5.48;100.00
73085;BME280;62974;49.460;10.892;2022-11-12T09:33:01;99484.91;;;5.58;100.00
73085;BME280;62974;49.460;10.892;2022-11-12T09:35:30;99492.22;;;5.56;100.00
73085;BME280;62974;49.460;10.892;2022-11-12T09:37:58;99494.72;;;5.58;100.00
73085;BME280;62974;49.460;10.892;2022-11-12T09:40:36;99489.97;;;5.61;100.00
73085;BME280;62974;49.460;10.892;2022-11-12T09:43:10;99497.38;;;5.69;100.00
73085;BME280;62974;49.460;10.892;2022-11-12T09:45:43;99494.38;;;5.83;100.00
73085;BME280;62974;49.460;10.892;2022-11-12T09:48:35;99497.16;;;5.82;100.00
73085;BME280;62974;49.460;10.892;2022-11-12T09:51:09;99497.53;;;5.88;100.00
73085;BME280;62974;49.460;10.892;2022-11-12T09:53:46;99494.25;;;5.85;100.00
73085;BME280;62974;49.460;10.892;2022-11-12T09:56:20;99490.84;;;5.94;100.00
73085;BME280;62974;49.460;10.892;2022-11-12T09:58:48;99485.06;;;5.89;100.00
73085;BME280;62974;49.460;10.892;2022-11-12T10:01:20;99485.06;;;5.89;100.00
73085;BME280;62974;49.460;10.892;2022-11-12T10:03:53;99484.41;;;5.96;100.00
73085;BME280;62974;49.460;10.892;2022-11-12T10:06:28;99487.41;;;6.03;100.00
73085;BME280;62974;49.460;10.892;2022-11-12T10:09:03;99479.72;;;6.09;100.00
73085;BME280;62974;49.460;10.892;2022-11-12T10:11:57;99473.09;;;6.25;100.00
73085;BME280;62974;49.460;10.892;2022-11-12T10:15:05;99477.03;;;6.30;100.00
73085;BME280;62974;49.460;10.892;2022-11-12T10:18:01;99468.31;;;6.28;100.00
73085;BME280;62974;49.460;10.892;2022-11-12T10:20:36;99472.28;;;6.34;100.00
73085;BME280;62974;49.460;10.892;2022-11-12T10:23:15;99463.25;;;6.55;100.00
73085;BME280;62974;49.460;10.892;2022-11-12T10:25:49;99458.78;;;6.66;100.00
73085;BME280;62974;49.460;10.892;2022-11-12T10:28:23;99453.19;;;6.38;100.00
73085;BME280;62974;49.460;10.892;2022-11-12T10:30:54;99453.50;;;6.75;100.00
73085;BME280;62974;49.460;10.892;2022-11-12T10:33:23;99456.28;;;6.64;100.00
73085;BME280;62974;49.460;10.892;2022-11-12T10:35:51;99440.59;;;6.50;100.00
73085;BME280;62974;49.460;10.892;2022-11-12T10:38:24;99445.53;;;6.94;100.00
73085;BME280;62974;49.460;10.892;2022-11-12T10:40:53;99439.38;;;7.03;100.00
73085;BME280;62974;49.460;10.892;2022-11-12T10:43:24;99431.63;;;6.91;100.00
73085;BME280;62974;49.460;10.892;2022-11-12T10:46:12;99440.75;;;6.98;100.00
73085;BME280;62974;49.460;10.892;2022-11-12T10:48:52;99434.16;;;7.02;100.00
73085;BME280;62974;49.460;10.892;2022-11-12T10:51:26;99431.38;;;7.03;100.00
73085;BME280;62974;49.460;10.892;2022-11-12T10:53:54;99437.28;;;7.07;100.00
73085;BME280;62974;49.460;10.892;2022-11-12T10:56:25;99427.81;;;6.93;100.00
73085;BME280;62974;49.460;10.892;2022-11-12T10:59:13;99429.56;;;7.23;100.00
73085;BME280;62974;49.460;10.892;2022-11-12T11:01:41;99427.03;;;7.12;100.00
73085;BME280;62974;49.460;10.892;2022-11-12T11:04:18;99420.97;;;7.10;100.00
73085;BME280;62974;49.460;10.892;2022-11-12T11:06:57;99423.25;;;7.24;100.00
73085;BME280;62974;49.460;10.892;2022-11-12T11:09:25;99419.72;;;7.24;100.00
73085;BME280;62974;49.460;10.892;2022-11-12T11:11:53;99418.72;;;7.34;100.00
73085;BME280;62974;49.460;10.892;2022-11-12T11:14:28;99415.78;;;7.37;100.00
73085;BME280;62974;49.460;10.892;2022-11-12T11:16:58;99420.13;;;7.19;100.00
73085;BME280;62974;49.460;10.892;2022-11-12T11:19:32;99416.34;;;7.60;100.00
73085;BME280;62974;49.460;10.892;2022-11-12T11:22:13;99411.25;;;7.57;100.00
73085;BME280;62974;49.460;10.892;2022-11-12T11:24:50;99411.13;;;7.49;100.00
73085;BME280;62974;49.460;10.892;2022-11-12T11:27:28;99402.09;;;7.79;100.00
73085;BME280;62974;49.460;10.892;2022-11-12T11:30:07;99404.50;;;7.53;100.00
73085;BME280;62974;49.460;10.892;2022-11-12T11:32:46;99402.78;;;7.90;100.00
73085;BME280;62974;49.460;10.892;2022-11-12T11:35:23;99398.09;;;8.02;100.00
73085;BME280;62974;49.460;10.892;2022-11-12T11:38:03;99400.22;;;8.08;100.00
73085;BME280;62974;49.460;10.892;2022-11-12T11:40:36;99398.78;;;8.14;100.00
73085;BME280;62974;49.460;10.892;2022-11-12T11:43:15;99387.63;;;8.18;100.00
73085;BME280;62974;49.460;10.892;2022-11-12T11:45:55;99385.25;;;8.15;100.00
73085;BME280;62974;49.460;10.892;2022-11-12T11:48:33;99384.91;;;7.91;100.00
73085;BME280;62974;49.460;10.892;2022-11-12T11:51:09;99380.88;;;8.14;100.00
73085;BME280;62974;49.460;10.892;2022-11-12T11:53:47;99382.00;;;7.75;100.00
73085;BME280;62974;49.460;10.892;2022-11-12T11:56:22;99389.88;;;7.67;100.00
73085;BME280;62974;49.460;10.892;2022-11-12T11:59:10;99375.25;;;8.17;100.00
73085;BME280;62974;49.460;10.892;2022-11-12T12:01:56;99375.34;;;8.25;100.00
73085;BME280;62974;49.460;10.892;2022-11-12T12:04:32;99373.38;;;8.27;99.43
73085;BME280;62974;49.460;10.892;2022-11-12T12:07:16;99368.97;;;7.99;99.87
73085;BME280;62974;49.460;10.892;2022-11-12T12:09:53;99373.78;;;7.86;100.00
73085;BME280;62974;49.460;10.892;2022-11-12T12:12:34;99363.81;;;8.62;100.00
73085;BME280;62974;49.460;10.892;2022-11-12T12:15:18;99362.56;;;8.83;97.14
73085;BME280;62974;49.460;10.892;2022-11-12T12:17:55;99350.28;;;8.81;97.81
73085;BME280;62974;49.460;10.892;2022-11-12T12:20:32;99354.44;;;8.11;98.83
73085;BME280;62974;49.460;10.892;2022-11-12T12:23:03;99349.88;;;8.76;99.75
73085;BME280;62974;49.460;10.892;2022-11-12T12:25:32;99349.16;;;8.83;96.76
73085;BME280;62974;49.460;10.892;2022-11-12T12:28:05;99350.69;;;8.86;96.27
73085;BME280;62974;49.460;10.892;2022-11-12T12:30:38;99346.00;;;8.70;98.71
73085;BME280;62974;49.460;10.892;2022-11-12T12:33:19;99342.88;;;8.92;96.50
73085;BME280;62974;49.460;10.892;2022-11-12T12:35:56;99335.31;;;9.06;96.23
73085;BME280;62974;49.460;10.892;2022-11-12T12:38:28;99337.31;;;9.04;98.01
73085;BME280;62974;49.460;10.892;2022-11-12T12:41:02;99337.75;;;9.17;95.97
73085;BME280;62974;49.460;10.892;2022-11-12T12:43:36;99331.53;;;9.16;96.16
73085;BME280;62974;49.460;10.892;2022-11-12T12:46:10;99321.75;;;9.25;94.69
73085;BME280;62974;49.460;10.892;2022-11-12T12:48:42;99317.53;;;9.22;96.08
73085;BME280;62974;49.460;10.892;2022-11-12T12:51:10;99317.50;;;9.40;94.63
73085;BME280;62974;49.460;10.892;2022-11-12T12:53:38;99305.53;;;9.26;94.97
73085;BME280;62974;49.460;10.892;2022-11-12T12:56:43;99310.09;;;9.16;94.16
73085;BME280;62974;49.460;10.892;2022-11-12T12:59:20;99308.97;;;9.01;96.74
73085;BME280;62974;49.460;10.892;2022-11-12T13:01:56;99304.59;;;9.18;95.96
73085;BME280;62974;49.460;10.892;2022-11-12T13:04:48;99306.88;;;9.30;95.20
73085;BME280;62974;49.460;10.892;2022-11-12T13:07:18;99312.84;;;9.42;95.67
73085;BME280;62974;49.460;10.892;2022-11-12T13:09:47;99309.31;;;9.24;96.07
73085;BME280;62974;49.460;10.892;2022-11-12T13:12:16;99316.69;;;9.22;96.29
73085;BME280;62974;49.460;10.892;2022-11-12T13:15:09;99319.16;;;9.15;97.71
73085;BME280;62974;49.460;10.892;2022-11-12T13:17:44;99314.72;;;9.06;96.93